Portada
METAR-TAF:

METAR-TAF

Aeroports :

Gove Peninsula, Austràlia

latitud: 12-16-12S, longitud: 136-49-06E, altitud: 62 m

Observació

L'informe es va fer fa 32 minuts, a les 16:00 UTC
Vent 5 kt del Est/Sud-Est
Temperatura 25°C
Humitat 83%
Pressió 1010 hPa
Visibilitat 10 km o més
Cel cobert a una alçada de 4200 ft

METAR: YPGV 081600Z AUTO 11005KT 9999 // OVC042 25/22 Q1010

Hora: 02:02 (16:32 UTC)

Pronòstic

L'informe es va fer fa 4 hores i 19 minuts, a les 12:13 UTC
Pronòstic vàlid del 08 a les 14 UTC al 09 a les 02 UTC
Vent 6 kt del Est/Sud-Est
Visibilitat 10 km o més
Núvols disperses a una alçada de 2500 ft

TAF: YPGV 081213Z 0814/0902 12006KT 9999 SCT025

Observacions i pronòstics meteorològics de més de 4000 aeroports (METAR i TAF).

Les estacions disponibles són els punts grocs i vermells al mapa.

Posi el ratolí al punt desitjat per veure el nom de l'estació.

Feu clic per veure les observacions i els pronòstics meteorològics.

Per canviar el mapa: feu clic els botons verds amb una creu de color negre per apropar; al botó verd amb un guió per allunyar la imatge; o en les fletxes verdes per a mapes adjacents.


METAR-TAF: